Grovespring, Missouri
Current Conditions -  °F | °C
As of 7:58 AM on Wednesday 22 Oct 2014 (Local Time) from KTBN Reporting Station
Clear Clear  
Wind Chill: 41°   Ceiling: Unl
Heat Index: 44°   Visibility: 10mi
Dew Point: 43°   Wind: 5mph
Humidity: 97%   Direction: 110°ESE
Pressure: 30.26"   Gusts: NA
Location:  37.4°N, 92.61°W
Report Text: KTBN 221258Z AUTO 11004KT 10SM CLR 07/06 A3026 RMK AO2 SLP250 T00660061
Loading
Personal Weather Stations






























Interactive Weather Map
Tropical Storm Tracking
New forecast layout! Learn more

10-Day Weather Forecast

Advertisements
Track Severe Weather on mobile